Time;durP1;ratioP1;P1;durP2;ratioP2;P2;SDS_P1;SDS_P2;PMS_P1;PMS_P2;Temp;Humidity;BMP_temperature;BMP_pressure;BME280_temperature;BME280_humidity;BME280_pressure;Samples;Min_cycle;Max_cycle;Signal;HPM_P1;HPM_P2
2022/12/27 00:01:41;;;;;;;8.57;4.68;;;;;;;1.78;100.00;102089.81;5017406;28;20041;-77
2022/12/27 00:04:07;;;;;;;12.15;4.43;;;;;;;1.80;100.00;102097.81;5010918;28;20048;-76
2022/12/27 00:06:32;;;;;;;9.70;3.92;;;;;;;1.85;100.00;102112.06;5024428;28;20043;-77
2022/12/27 00:08:57;;;;;;;7.72;4.43;;;;;;;1.82;100.00;102108.53;5017995;28;20096;-77
2022/12/27 00:11:26;;;;;;;11.18;4.60;;;;;;;1.83;100.00;102104.97;4993354;28;20073;-76
2022/12/27 00:13:51;;;;;;;13.77;4.55;;;;;;;1.82;100.00;102117.50;5019687;28;20040;-78
2022/12/27 00:16:19;;;;;;;10.57;4.15;;;;;;;1.77;100.00;102112.19;5026451;28;20025;-76
2022/12/27 00:18:45;;;;;;;11.88;4.97;;;;;;;1.78;100.00;102113.97;5030569;28;20046;-76
2022/12/27 00:21:12;;;;;;;12.15;4.68;;;;;;;1.79;100.00;102112.16;5029237;28;20448;-79
2022/12/27 00:23:44;;;;;;;9.45;4.25;;;;;;;1.77;100.00;102113.97;5029116;28;20120;-77
2022/12/27 00:26:24;;;;;;;11.53;4.77;;;;;;;1.76;100.00;102109.50;5030347;28;20041;-77
2022/12/27 00:28:50;;;;;;;12.20;4.70;;;;;;;1.74;100.00;102114.03;5017365;28;20384;-79
2022/12/27 00:31:17;;;;;;;9.55;4.18;;;;;;;1.75;100.00;102118.47;5023045;28;20088;-78
2022/12/27 00:33:44;;;;;;;13.57;4.53;;;;;;;1.77;100.00;102119.31;5030441;28;20032;-78
2022/12/27 00:36:13;;;;;;;11.75;4.38;;;;;;;1.80;100.00;102113.94;5026907;28;20432;-79
2022/12/27 00:38:38;;;;;;;13.25;4.38;;;;;;;1.78;100.00;102121.13;5025996;28;20034;-77
2022/12/27 00:41:05;;;;;;;11.82;4.30;;;;;;;1.79;100.00;102118.41;5020374;28;20470;-77
2022/12/27 00:43:30;;;;;;;9.52;3.67;;;;;;;1.80;100.00;102116.59;5027852;28;20490;-78
2022/12/27 00:45:56;;;;;;;10.52;3.92;;;;;;;1.81;100.00;102123.75;5025425;28;20112;-77
2022/12/27 00:48:21;;;;;;;11.98;4.03;;;;;;;1.81;100.00;102128.22;5030041;28;20072;-78
2022/12/27 00:50:47;;;;;;;9.13;4.28;;;;;;;1.80;100.00;102127.34;5028761;28;20114;-80
2022/12/27 00:53:13;;;;;;;9.25;4.07;;;;;;;1.81;100.00;102128.22;5029423;28;20366;-78
2022/12/27 00:55:42;;;;;;;8.93;4.53;;;;;;;1.83;100.00;102129.09;5029918;28;20063;-78
2022/12/27 00:58:07;;;;;;;20.85;3.75;;;;;;;1.83;100.00;102132.66;5022410;28;20191;-77
2022/12/27 01:00:33;;;;;;;7.10;3.67;;;;;;;1.84;100.00;102142.47;5026285;28;20528;-77
2022/12/27 01:02:58;;;;;;;10.50;3.95;;;;;;;1.85;100.00;102144.25;5029044;28;20409;-77
2022/12/27 01:05:24;;;;;;;12.48;5.05;;;;;;;1.86;100.00;102143.34;5030413;28;20028;-77
2022/12/27 01:07:49;;;;;;;12.05;4.53;;;;;;;1.85;100.00;102140.69;5024369;28;20112;-77
2022/12/27 01:10:15;;;;;;;9.90;4.25;;;;;;;1.86;100.00;102137.09;5009448;28;20121;-78
2022/12/27 01:12:40;;;;;;;9.93;3.80;;;;;;;1.86;100.00;102142.44;5009971;28;20528;-77
2022/12/27 01:15:07;;;;;;;11.80;4.10;;;;;;;1.90;100.00;102142.38;5020987;28;20034;-77
2022/12/27 01:17:33;;;;;;;11.90;4.63;;;;;;;1.90;100.00;102146.84;5012160;28;20500;-77
2022/12/27 01:19:58;;;;;;;7.60;3.63;;;;;;;1.90;100.00;102150.44;5029580;28;20048;-77
2022/12/27 01:22:24;;;;;;;10.32;3.60;;;;;;;1.87;100.00;102146.94;5027599;28;20037;-77
2022/12/27 01:24:50;;;;;;;12.65;3.90;;;;;;;1.86;100.00;102151.38;5024476;28;20487;-78
2022/12/27 01:27:15;;;;;;;12.30;4.70;;;;;;;1.87;100.00;102155.88;5010952;28;20036;-78
2022/12/27 01:29:40;;;;;;;10.88;4.35;;;;;;;1.90;100.00;102160.28;5023759;28;20041;-78
2022/12/27 01:32:07;;;;;;;8.75;3.95;;;;;;;1.93;100.00;102157.56;5008558;28;20030;-76
2022/12/27 01:34:32;;;;;;;11.20;4.68;;;;;;;1.91;100.00;102167.41;5010251;28;20045;-79
2022/12/27 01:36:58;;;;;;;7.53;4.43;;;;;;;1.86;100.00;102161.22;5022951;28;20022;-77
2022/12/27 01:39:23;;;;;;;12.00;4.13;;;;;;;1.86;100.00;102174.66;5016916;28;20065;-78
2022/12/27 01:44:48;;;;;;;11.95;4.90;;;;;;;1.88;100.00;102179.09;5012590;28;20069;-78
2022/12/27 01:47:23;;;;;;;9.50;4.32;;;;;;;1.90;100.00;102174.56;5025176;28;20033;-77
2022/12/27 01:49:55;;;;;;;13.68;4.07;;;;;;;1.91;100.00;102175.47;5029260;28;20091;-79
2022/12/27 01:52:23;;;;;;;12.40;3.83;;;;;;;1.88;100.00;102187.16;5012893;28;20091;-78
2022/12/27 01:54:49;;;;;;;15.57;4.35;;;;;;;1.87;100.00;102184.50;5009579;28;20744;-77
2022/12/27 01:57:14;;;;;;;12.05;4.00;;;;;;;1.89;100.00;102188.91;5024813;28;20452;-78
2022/12/27 01:59:40;;;;;;;11.88;3.78;;;;;;;1.88;100.00;102187.16;5015579;28;20060;-79
2022/12/27 02:02:06;;;;;;;11.35;3.55;;;;;;;1.87;100.00;102190.75;5010042;28;20073;-77
2022/12/27 02:04:33;;;;;;;14.88;3.60;;;;;;;1.81;100.00;102179.19;5009560;28;20033;-79
2022/12/27 02:06:59;;;;;;;6.55;3.47;;;;;;;1.88;100.00;102205.94;5021562;28;20057;-76
2022/12/27 02:09:40;;;;;;;11.90;4.40;;;;;;;1.91;100.00;102202.28;5008905;28;20038;-78
2022/12/27 02:12:08;;;;;;;14.75;3.15;;;;;;;1.92;100.00;102199.63;5028911;28;20119;-76
2022/12/27 02:14:38;;;;;;;11.55;4.63;;;;;;;1.92;100.00;102196.03;5026805;28;20038;-78
2022/12/27 02:17:08;;;;;;;12.52;3.60;;;;;;;1.98;100.00;102204.88;5027105;28;20056;-78
2022/12/27 02:19:40;;;;;;;10.88;3.42;;;;;;;1.97;100.00;102211.16;5013612;28;20050;-78
2022/12/27 02:22:26;;;;;;;9.30;3.40;;;;;;;1.98;100.00;102204.00;5009438;28;20496;-77
2022/12/27 02:25:24;;;;;;;9.75;3.15;;;;;;;1.96;100.00;102206.72;5008698;28;20069;-78
2022/12/27 02:27:53;;;;;;;11.20;3.88;;;;;;;1.98;100.00;102204.88;5027519;28;20037;-78
2022/12/27 02:30:18;;;;;;;7.80;3.47;;;;;;;1.93;100.00;102206.75;5009088;28;20044;-78
2022/12/27 02:32:55;;;;;;;12.75;3.67;;;;;;;1.95;100.00;102210.28;5010974;28;20109;-78
2022/12/27 02:35:26;;;;;;;10.75;3.40;;;;;;;1.95;100.00;102212.97;5017732;28;20485;-78
2022/12/27 02:37:58;;;;;;;8.82;3.50;;;;;;;1.97;100.00;102213.84;5022945;28;20429;-78
2022/12/27 02:57:07;;;;;;;9.10;3.13;;;;;;;2.00;100.00;102202.16;4990635;28;20181;-77
2022/12/27 02:58:53;;;;;;;7.82;3.15;;;;;;;2.04;100.00;102207.47;4978890;28;20123;-78
2022/12/27 03:05:01;;;;;;;13.25;3.42;;;;;;;2.06;100.00;102195.84;5028728;28;20041;-77
2022/12/27 03:08:02;;;;;;;10.77;3.03;;;;;;;2.09;100.00;102201.13;5011038;28;20045;-77
2022/12/27 03:16:59;;;;;;;10.70;4.03;;;;;;;2.08;100.00;102216.34;5012232;28;20066;-78
2022/12/27 03:33:11;;;;;;;9.52;2.65;;;;;;;2.11;100.00;102213.63;5011908;28;20117;-77
2022/12/27 03:33:21;;;;;;;11.90;3.10;;;;;;;2.15;100.00;102231.47;5031329;28;20096;-80
2022/12/27 03:39:08;;;;;;;12.15;2.88;;;;;;;2.17;100.00;102243.06;5029832;28;20037;-79
2022/12/27 03:44:26;;;;;;;13.93;3.58;;;;;;;2.26;100.00;102242.91;5015885;28;20929;-76
2022/12/27 03:46:57;;;;;;;17.10;3.58;;;;;;;2.29;100.00;102244.69;5011741;28;20474;-76
2022/12/27 03:49:35;;;;;;;7.07;3.08;;;;;;;2.34;100.00;102245.50;5011294;28;20045;-77
2022/12/27 03:52:12;;;;;;;10.95;3.03;;;;;;;2.33;100.00;102257.13;5024381;28;20037;-77
2022/12/27 03:54:41;;;;;;;15.40;3.63;;;;;;;2.30;100.00;102258.06;5030734;28;20037;-78
2022/12/27 03:57:14;;;;;;;7.60;3.45;;;;;;;2.34;100.00;102266.97;5025397;28;20033;-77
2022/12/27 03:59:39;;;;;;;8.60;3.20;;;;;;;2.31;100.00;102258.97;5009501;28;20065;-77
2022/12/27 04:02:06;;;;;;;9.48;2.88;;;;;;;2.24;100.00;102268.91;5024173;28;20029;-78
2022/12/27 04:04:31;;;;;;;10.40;3.22;;;;;;;2.23;100.00;102264.44;5029747;28;20425;-76
2022/12/27 04:06:57;;;;;;;9.07;2.88;;;;;;;2.21;100.00;102263.59;5030623;28;20033;-77
2022/12/27 04:36:43;;;;;;;18.92;3.10;;;;;;;2.07;100.00;102257.53;5021140;28;20538;-78
2022/12/27 04:39:10;;;;;;;8.30;3.03;;;;;;;2.06;100.00;102257.56;5011025;28;20129;-77
2022/12/27 04:55:23;;;;;;;9.23;3.17;;;;;;;2.16;100.00;102299.47;5019687;28;20416;-78
2022/12/27 04:57:50;;;;;;;10.75;3.38;;;;;;;2.17;100.00;102291.38;5019168;28;20393;-77
2022/12/27 05:03:04;;;;;;;11.13;3.33;;;;;;;2.30;100.00;102292.97;5010735;28;20046;-78
2022/12/27 05:05:30;;;;;;;9.48;3.10;;;;;;;2.36;100.00;102291.13;5020372;28;20037;-78
2022/12/27 05:16:08;;;;;;;8.20;3.13;;;;;;;2.35;100.00;102282.16;5011697;28;20045;-78
2022/12/27 05:18:33;;;;;;;5.82;3.28;;;;;;;2.31;100.00;102285.81;5009955;28;20512;-77
2022/12/27 05:21:04;;;;;;;8.60;3.17;;;;;;;2.25;100.00;102280.53;5042676;28;20125;-77
2022/12/27 05:26:19;;;;;;;13.68;3.28;;;;;;;2.18;100.00;102281.53;5028195;28;20451;-77
2022/12/27 05:28:44;;;;;;;15.45;3.35;;;;;;;2.14;100.00;102280.69;5019424;28;20406;-78
2022/12/27 05:31:10;;;;;;;6.40;3.10;;;;;;;2.12;100.00;102290.56;5008769;28;20489;-76
2022/12/27 05:33:36;;;;;;;9.90;3.95;;;;;;;2.13;100.00;102289.66;5010109;28;20117;-75
2022/12/27 05:36:01;;;;;;;6.80;3.03;;;;;;;2.17;100.00;102299.44;5007665;28;20412;-78
2022/12/27 05:38:26;;;;;;;8.38;3.10;;;;;;;2.26;100.00;102296.63;5007776;28;20045;-78
2022/12/27 05:41:00;;;;;;;16.80;2.90;;;;;;;2.38;100.00;102310.75;5009936;28;20061;-77
2022/12/27 05:43:26;;;;;;;14.07;3.08;;;;;;;2.44;100.00;102319.63;5011352;28;20040;-78
2022/12/27 05:45:52;;;;;;;5.93;3.55;;;;;;;2.54;100.00;102337.38;5016819;28;20074;-76
2022/12/27 05:48:18;;;;;;;6.30;2.95;;;;;;;2.63;100.00;102341.72;5047006;28;20088;-78
2022/12/27 05:50:44;;;;;;;6.97;2.67;;;;;;;2.68;100.00;102350.59;5009973;28;20044;-78
2022/12/27 05:53:11;;;;;;;13.68;3.28;;;;;;;2.71;100.00;102347.88;5029002;28;20497;-78
2022/12/27 05:55:36;;;;;;;9.95;3.60;;;;;;;2.77;100.00;102352.25;5024017;28;20033;-78
2022/12/27 05:58:02;;;;;;;13.85;3.60;;;;;;;2.77;100.00;102350.47;5027784;28;20033;-77
2022/12/27 06:00:27;;;;;;;11.25;3.22;;;;;;;2.81;100.00;102362.94;5012207;28;20115;-76
2022/12/27 06:02:53;;;;;;;9.52;3.53;;;;;;;2.83;100.00;102362.03;5019336;28;20033;-77
2022/12/27 06:05:18;;;;;;;15.95;3.55;;;;;;;2.84;100.00;102361.97;5029392;28;20032;-78
2022/12/27 06:07:44;;;;;;;7.97;3.35;;;;;;;2.84;100.00;102358.41;5026562;28;20034;-78
2022/12/27 06:10:10;;;;;;;11.07;3.45;;;;;;;2.84;100.00;102358.41;5014457;28;20030;-78
2022/12/27 06:12:35;;;;;;;12.25;4.10;;;;;;;2.81;100.00;102351.31;5017417;28;20045;-77
2022/12/27 06:15:03;;;;;;;14.10;4.35;;;;;;;2.83;100.00;102356.66;5016666;28;20057;-77
2022/12/27 06:17:28;;;;;;;18.02;3.30;;;;;;;2.82;100.00;102353.06;5013044;28;20498;-76
2022/12/27 06:19:54;;;;;;;10.10;3.00;;;;;;;2.81;100.00;102352.19;5012856;28;20099;-76
2022/12/27 06:22:19;;;;;;;13.15;3.67;;;;;;;2.79;100.00;102345.03;5013057;28;20133;-76
2022/12/27 06:24:44;;;;;;;9.35;3.00;;;;;;;2.76;100.00;102351.38;5024098;28;20510;-77
2022/12/27 06:27:10;;;;;;;9.57;3.53;;;;;;;2.70;100.00;102348.75;5011679;28;20030;-76
2022/12/27 06:29:35;;;;;;;9.85;3.00;;;;;;;2.65;100.00;102349.75;5015100;28;20493;-76
2022/12/27 06:32:00;;;;;;;10.30;3.25;;;;;;;2.57;100.00;102351.69;5016005;28;20180;-77
2022/12/27 06:34:26;;;;;;;8.13;2.85;;;;;;;2.51;100.00;102350.84;5015111;28;20148;-76
2022/12/27 06:36:51;;;;;;;6.75;3.05;;;;;;;2.48;100.00;102360.78;5014250;28;20033;-77
2022/12/27 06:39:18;;;;;;;13.98;3.50;;;;;;;2.38;100.00;102357.34;5014212;28;20041;-77
2022/12/27 06:41:43;;;;;;;7.68;3.20;;;;;;;2.32;100.00;102346.66;5017046;28;20025;-76
2022/12/27 06:44:09;;;;;;;6.18;2.97;;;;;;;2.21;100.00;102349.50;5014045;28;20507;-77
2022/12/27 06:46:34;;;;;;;7.00;2.70;;;;;;;2.13;100.00;102353.19;5043393;28;20041;-76
2022/12/27 06:49:01;;;;;;;8.55;3.08;;;;;;;2.04;100.00;102357.75;5044029;28;20030;-76
2022/12/27 06:51:26;;;;;;;8.35;3.13;;;;;;;1.92;100.00;102346.31;5013137;28;20034;-77
2022/12/27 06:53:51;;;;;;;6.20;2.75;;;;;;;1.89;100.00;102351.72;5048020;28;20065;-77
2022/12/27 06:56:19;;;;;;;9.63;3.20;;;;;;;1.87;100.00;102357.09;5025862;28;20477;-76
2022/12/27 06:58:46;;;;;;;8.23;3.30;;;;;;;1.82;100.00;102350.91;5029315;28;20021;-77
2022/12/27 07:01:13;;;;;;;8.98;3.05;;;;;;;1.79;100.00;102353.63;5014204;28;20030;-77
2022/12/27 07:03:38;;;;;;;7.25;2.92;;;;;;;1.76;100.00;102350.97;5013491;28;20041;-76
2022/12/27 07:06:06;;;;;;;8.23;3.17;;;;;;;1.74;100.00;102351.00;5022010;28;20076;-76
2022/12/27 07:08:33;;;;;;;8.40;2.60;;;;;;;1.71;100.00;102361.75;5020058;28;20842;-77
2022/12/27 07:11:05;;;;;;;11.82;3.20;;;;;;;1.71;100.00;102363.53;5013794;28;20037;-76
2022/12/27 07:13:52;;;;;;;17.03;3.70;;;;;;;1.64;100.00;102362.75;5025876;28;20034;-77
2022/12/27 07:16:23;;;;;;;11.65;2.97;;;;;;;1.58;100.00;102370.81;5014924;28;20026;-77
2022/12/27 07:18:49;;;;;;;9.60;2.97;;;;;;;1.53;100.00;102375.34;5027990;28;20053;-76
2022/12/27 07:21:19;;;;;;;9.18;3.25;;;;;;;1.46;100.00;102377.22;5030702;28;20120;-76
2022/12/27 07:23:45;;;;;;;12.20;3.00;;;;;;;1.44;100.00;102386.16;5012960;28;20045;-76
2022/12/27 07:26:16;;;;;;;8.30;3.28;;;;;;;1.39;100.00;102382.66;5011270;28;20038;-76
2022/12/27 07:28:42;;;;;;;11.75;3.40;;;;;;;1.33;100.00;102383.59;5010278;28;20113;-77
2022/12/27 07:31:10;;;;;;;8.02;2.78;;;;;;;1.32;100.00;102387.19;5018067;28;20041;-77
2022/12/27 07:33:37;;;;;;;8.10;3.10;;;;;;;1.30;100.00;102377.38;5017093;28;20033;-75
2022/12/27 07:36:04;;;;;;;10.65;3.13;;;;;;;1.35;100.00;102386.25;5030988;28;20033;-78
2022/12/27 07:38:29;;;;;;;8.77;3.28;;;;;;;1.34;100.00;102385.38;5023436;28;20069;-76
2022/12/27 07:41:01;;;;;;;11.93;4.47;;;;;;;1.35;100.00;102384.47;5043827;28;20108;-77
2022/12/27 07:43:34;;;;;;;11.55;4.00;;;;;;;1.34;100.00;102382.69;5011454;28;20092;-76
2022/12/27 07:46:09;;;;;;;6.10;3.13;;;;;;;1.37;100.00;102393.41;5025818;28;20116;-76
2022/12/27 07:48:35;;;;;;;10.55;3.20;;;;;;;1.37;100.00;102393.41;5033420;28;20072;-77
2022/12/27 07:51:00;;;;;;;11.25;3.10;;;;;;;1.39;100.00;102398.75;5021831;28;20070;-76
2022/12/27 07:53:27;;;;;;;12.68;4.03;;;;;;;1.40;100.00;102388.03;5030732;28;20033;-77
2022/12/27 07:55:52;;;;;;;12.38;3.92;;;;;;;1.44;100.00;102391.53;5030993;28;20043;-77
2022/12/27 07:58:19;;;;;;;9.43;3.05;;;;;;;1.45;100.00;102388.88;5025118;28;20037;-76
2022/12/27 08:00:50;;;;;;;13.65;4.63;;;;;;;1.45;100.00;102386.19;5014226;28;20040;-77
2022/12/27 08:03:16;;;;;;;11.85;3.97;;;;;;;1.48;100.00;102394.16;5012203;28;20068;-77
2022/12/27 08:05:51;;;;;;;13.82;4.07;;;;;;;1.50;100.00;102408.47;5008176;28;20038;-77
2022/12/27 08:08:19;;;;;;;12.15;4.18;;;;;;;1.52;100.00;102408.44;5028362;28;20033;-77
2022/12/27 08:10:44;;;;;;;9.15;3.97;;;;;;;1.57;100.00;102400.34;5024149;28;20116;-77
2022/12/27 08:13:10;;;;;;;13.10;4.18;;;;;;;1.56;100.00;102402.16;5019848;28;20132;-77
2022/12/27 08:15:37;;;;;;;11.65;4.13;;;;;;;1.65;100.00;102422.63;5013847;28;20022;-77
2022/12/27 08:18:03;;;;;;;10.05;4.30;;;;;;;1.68;100.00;102411.84;5007644;28;20085;-77
2022/12/27 08:20:28;;;;;;;9.85;4.00;;;;;;;1.71;100.00;102417.19;5051789;28;20057;-77
2022/12/27 08:22:54;;;;;;;12.55;4.85;;;;;;;1.74;100.00;102418.06;5016566;28;20045;-77
2022/12/27 08:25:20;;;;;;;12.13;5.00;;;;;;;1.73;100.00;102415.41;5026706;28;20040;-79
2022/12/27 08:27:46;;;;;;;10.38;4.40;;;;;;;1.81;100.00;102426.91;5029866;28;20133;-77
2022/12/27 08:30:11;;;;;;;16.95;4.95;;;;;;;1.83;100.00;102430.50;5018890;28;20665;-78
2022/12/27 08:32:37;;;;;;;13.93;4.60;;;;;;;1.86;100.00;102430.44;5010282;28;20084;-76
2022/12/27 08:35:02;;;;;;;19.10;5.13;;;;;;;1.89;100.00;102430.41;5018584;28;20045;-77
2022/12/27 08:37:28;;;;;;;8.45;4.82;;;;;;;1.88;100.00;102423.28;5022495;28;20029;-78
2022/12/27 08:39:56;;;;;;;15.30;4.63;;;;;;;1.94;100.00;102428.56;5025910;28;20112;-78
2022/12/27 08:42:21;;;;;;;13.55;4.35;;;;;;;1.98;100.00;102422.25;5023938;28;20030;-78
2022/12/27 08:44:47;;;;;;;9.95;4.90;;;;;;;2.03;100.00;102416.84;5021979;28;20037;-79
2022/12/27 08:47:12;;;;;;;15.20;4.75;;;;;;;2.04;100.00;102414.13;5023763;28;20109;-77
2022/12/27 08:49:37;;;;;;;10.75;4.20;;;;;;;2.08;100.00;102406.06;5025478;28;20018;-77
2022/12/27 08:52:03;;;;;;;12.82;5.68;;;;;;;2.13;100.00;102410.44;5023657;28;20041;-79
2022/12/27 08:54:29;;;;;;;10.73;4.85;;;;;;;2.17;100.00;102409.50;5026277;28;20377;-77
2022/12/27 08:56:54;;;;;;;18.15;5.63;;;;;;;2.19;100.00;102407.72;5013838;28;20018;-78
2022/12/27 08:59:20;;;;;;;14.20;4.38;;;;;;;2.23;100.00;102405.84;5020937;28;20029;-77
2022/12/27 09:01:45;;;;;;;10.23;4.93;;;;;;;2.22;100.00;102402.28;5018850;28;20022;-78
2022/12/27 09:04:10;;;;;;;13.00;6.32;;;;;;;2.18;100.00;102399.66;5021390;28;20480;-78
2022/12/27 09:06:38;;;;;;;10.25;4.60;;;;;;;2.24;100.00;102403.16;5044830;28;20076;-79
2022/12/27 09:09:04;;;;;;;12.18;4.90;;;;;;;2.30;100.00;102412.94;5014304;28;20037;-77
2022/12/27 09:11:32;;;;;;;16.77;4.82;;;;;;;2.34;100.00;102412.00;5016213;28;20481;-78
2022/12/27 09:13:59;;;;;;;16.73;4.80;;;;;;;2.35;100.00;102412.88;5018375;28;20025;-77
2022/12/27 09:16:26;;;;;;;7.65;4.72;;;;;;;2.40;100.00;102419.06;5021809;28;20063;-77
2022/12/27 09:18:53;;;;;;;15.20;5.25;;;;;;;2.44;100.00;102412.75;5021966;28;20038;-78
2022/12/27 09:21:21;;;;;;;14.30;5.50;;;;;;;2.50;100.00;102420.72;5027916;28;20481;-78
2022/12/27 09:23:47;;;;;;;13.48;5.15;;;;;;;2.55;100.00;102419.75;5020520;28;20401;-78
2022/12/27 09:26:15;;;;;;;10.60;4.50;;;;;;;2.61;100.00;102412.50;5020785;28;20455;-76
2022/12/27 09:28:41;;;;;;;14.88;6.15;;;;;;;2.65;100.00;102417.81;5025503;28;20033;-77
2022/12/27 09:31:08;;;;;;;13.70;5.13;;;;;;;2.66;100.00;102413.31;5015790;28;20116;-78
2022/12/27 09:33:34;;;;;;;12.27;5.40;;;;;;;2.71;100.00;102423.13;5009584;28;20374;-77
2022/12/27 09:36:03;;;;;;;13.45;5.05;;;;;;;2.78;100.00;102427.47;5018752;28;20037;-78
2022/12/27 09:38:29;;;;;;;14.13;5.05;;;;;;;2.79;100.00;102418.50;5022040;28;20033;-77
2022/12/27 09:40:58;;;;;;;12.05;6.03;;;;;;;2.89;100.00;102432.72;5017855;28;20393;-77
2022/12/27 09:43:38;;;;;;;13.07;5.22;;;;;;;2.94;100.00;102433.53;5020059;28;20816;-78
2022/12/27 09:46:08;;;;;;;8.57;4.35;;;;;;;3.01;100.00;102428.94;5018981;28;20038;-78
2022/12/27 09:48:38;;;;;;;11.88;5.50;;;;;;;3.05;100.00;102430.66;5020000;28;20170;-77
2022/12/27 09:51:34;;;;;;;10.27;4.65;;;;;;;3.12;100.00;102431.44;4999095;28;20087;-78
2022/12/27 09:54:03;;;;;;;12.27;4.50;;;;;;;3.18;100.00;102425.97;5024538;28;20060;-78
2022/12/27 09:56:31;;;;;;;13.02;4.55;;;;;;;3.25;100.00;102424.94;5021084;28;20131;-77
2022/12/27 09:59:20;;;;;;;14.02;5.20;;;;;;;3.30;100.00;102431.13;5022640;28;20040;-78
2022/12/27 10:01:47;;;;;;;20.00;4.75;;;;;;;3.36;100.00;102427.44;5010206;28;20038;-78
2022/12/27 10:04:16;;;;;;;12.63;5.03;;;;;;;3.40;100.00;102424.69;5015509;28;20033;-78
2022/12/27 10:06:47;;;;;;;12.95;6.03;;;;;;;3.48;100.00;102429.94;5021618;28;20504;-78
2022/12/27 10:09:25;;;;;;;11.83;4.97;;;;;;;3.55;100.00;102435.19;5006413;28;20101;-79
2022/12/27 10:12:03;;;;;;;14.93;4.35;;;;;;;3.62;100.00;102435.97;5007318;28;20092;-78
2022/12/27 10:15:08;;;;;;;12.80;4.78;;;;;;;3.70;100.00;102442.09;5008942;28;20049;-78
2022/12/27 10:17:51;;;;;;;12.93;4.63;;;;;;;3.79;100.00;102433.84;5008333;28;20100;-79
2022/12/27 10:20:26;;;;;;;13.13;4.28;;;;;;;3.87;100.00;102433.72;5022528;28;20041;-78
2022/12/27 10:22:55;;;;;;;14.02;5.53;;;;;;;3.95;100.00;102434.44;5016871;28;20033;-78
2022/12/27 10:25:23;;;;;;;19.13;4.72;;;;;;;4.01;100.00;102426.28;5010822;28;20038;-78
2022/12/27 10:27:53;;;;;;;14.32;6.00;;;;;;;4.09;100.00;102423.41;5017387;28;20029;-77
2022/12/27 10:30:20;;;;;;;20.92;4.72;;;;;;;4.12;100.00;102412.56;5016559;28;20050;-78
2022/12/27 10:32:47;;;;;;;9.82;4.53;;;;;;;4.22;100.00;102419.53;5017696;28;20022;-78
2022/12/27 10:35:15;;;;;;;9.95;4.32;;;;;;;4.23;100.00;102413.22;5020092;28;20511;-77
2022/12/27 10:37:42;;;;;;;11.13;4.68;;;;;;;4.35;100.00;102423.75;5019997;28;20065;-78
2022/12/27 10:40:14;;;;;;;8.68;4.32;;;;;;;4.41;100.00;102425.44;5018593;28;20507;-76
2022/12/27 10:42:49;;;;;;;9.77;4.28;;;;;;;4.49;100.00;102426.16;5024094;28;20396;-76
2022/12/27 10:45:33;;;;;;;16.83;4.65;;;;;;;4.56;100.00;102433.16;5019018;28;20033;-76
2022/12/27 10:48:13;;;;;;;11.10;4.45;;;;;;;4.67;100.00;102424.00;5020673;28;20512;-75
2022/12/27 10:50:49;;;;;;;14.55;4.80;;;;;;;4.72;100.00;102428.34;5007186;28;20041;-76
2022/12/27 10:53:31;;;;;;;8.95;3.63;;;;;;;4.82;100.00;102429.03;5020855;28;20095;-76
2022/12/27 10:56:09;;;;;;;9.93;3.80;;;;;;;4.88;100.00;102422.59;5022543;28;20030;-76
2022/12/27 10:58:39;;;;;;;11.02;4.50;;;;;;;4.96;100.00;102429.59;5011610;28;20044;-76
2022/12/27 11:01:13;;;;;;;7.28;3.80;;;;;;;4.96;100.00;102437.69;5011932;28;20041;-76
2022/12/27 11:03:38;;;;;;;10.75;4.30;;;;;;;4.95;100.00;102435.03;5016003;28;20488;-76
2022/12/27 11:06:06;;;;;;;9.32;4.40;;;;;;;4.93;100.00;102432.34;5028574;28;20037;-76
2022/12/27 11:08:32;;;;;;;10.88;4.40;;;;;;;4.93;100.00;102434.16;5027615;28;20037;-76
2022/12/27 11:11:21;;;;;;;10.65;3.95;;;;;;;4.95;100.00;102440.41;5022958;28;20039;-76
2022/12/27 11:13:47;;;;;;;15.05;4.18;;;;;;;4.96;100.00;102424.19;5014928;28;20064;-76
2022/12/27 11:16:24;;;;;;;10.18;3.90;;;;;;;5.01;100.00;102414.19;5022539;28;20061;-76
2022/12/27 11:18:52;;;;;;;8.10;4.28;;;;;;;5.04;100.00;102411.41;5024820;28;20103;-75
2022/12/27 11:21:18;;;;;;;10.13;3.70;;;;;;;5.08;100.00;102413.13;5020315;28;20520;-75
2022/12/27 11:23:49;;;;;;;9.45;3.80;;;;;;;5.14;100.00;102409.38;5013673;28;20073;-75
2022/12/27 11:26:48;;;;;;;13.77;4.72;;;;;;;5.22;100.00;102415.47;5021163;28;20034;-76
2022/12/27 11:29:17;;;;;;;11.38;3.13;;;;;;;5.25;100.00;102398.31;5016934;28;20544;-76
2022/12/27 11:31:47;;;;;;;12.40;4.25;;;;;;;5.30;100.00;102408.06;5022314;28;20068;-75
2022/12/27 11:34:42;;;;;;;9.75;4.00;;;;;;;5.37;100.00;102409.69;5017680;28;20040;-75
2022/12/27 11:37:14;;;;;;;9.15;3.83;;;;;;;5.43;100.00;102411.34;5011228;28;20095;-76
2022/12/27 11:39:45;;;;;;;7.03;4.30;;;;;;;5.46;100.00;102413.97;5024491;28;20037;-75
2022/12/27 11:42:45;;;;;;;13.77;3.80;;;;;;;5.52;100.00;102407.50;5046077;28;20087;-76
2022/12/27 11:45:16;;;;;;;8.68;3.53;;;;;;;5.55;100.00;102416.41;5026704;28;20038;-75
2022/12/27 11:48:03;;;;;;;13.55;3.50;;;;;;;5.58;100.00;102405.53;5010085;28;20076;-76
2022/12/27 11:50:47;;;;;;;8.50;3.45;;;;;;;5.62;100.00;102401.81;5017995;28;20480;-76
2022/12/27 11:53:26;;;;;;;7.05;3.50;;;;;;;5.61;100.00;102399.16;5030810;28;20039;-75
2022/12/27 11:55:52;;;;;;;16.15;3.80;;;;;;;5.57;100.00;102398.34;5031334;28;20033;-76
2022/12/27 11:58:54;;;;;;;9.50;3.92;;;;;;;5.54;100.00;102393.03;5027957;28;20041;-76
2022/12/27 12:01:26;;;;;;;10.63;4.05;;;;;;;5.47;100.00;102396.84;5010673;28;20095;-75
2022/12/27 12:04:09;;;;;;;14.30;4.00;;;;;;;5.40;100.00;102389.81;5010206;28;20478;-76
2022/12/27 12:07:14;;;;;;;9.00;3.78;;;;;;;5.34;100.00;102395.38;5020074;28;20343;-76
2022/12/27 12:10:05;;;;;;;9.02;3.63;;;;;;;5.26;100.00;102392.84;5002500;28;20050;-74
2022/12/27 12:12:30;;;;;;;5.38;3.15;;;;;;;5.23;100.00;102386.69;5012441;28;20044;-76
2022/12/27 12:15:30;;;;;;;8.63;3.97;;;;;;;5.16;100.00;102377.84;5009511;28;20029;-75
2022/12/27 12:18:31;;;;;;;10.93;3.85;;;;;;;5.14;100.00;102368.03;5010413;28;20125;-76
2022/12/27 12:21:29;;;;;;;8.32;3.50;;;;;;;5.09;100.00;102369.03;5008861;28;20581;-76
2022/12/27 12:24:32;;;;;;;10.70;3.70;;;;;;;5.06;100.00;102366.41;5010719;28;20099;-76
2022/12/27 12:27:09;;;;;;;8.57;3.40;;;;;;;5.03;100.00;102377.25;5014679;28;20037;-76
2022/12/27 12:30:02;;;;;;;11.15;3.25;;;;;;;5.00;100.00;102373.78;5018615;28;20037;-76
2022/12/27 12:32:48;;;;;;;12.40;3.88;;;;;;;5.03;100.00;102369.16;5017245;28;20485;-77
2022/12/27 12:35:35;;;;;;;9.13;4.40;;;;;;;5.04;100.00;102360.16;5010859;28;20091;-76
2022/12/27 12:38:27;;;;;;;10.38;3.97;;;;;;;5.08;100.00;102363.66;5012533;28;20096;-76
2022/12/27 12:41:13;;;;;;;8.13;3.58;;;;;;;5.09;100.00;102363.63;5010678;28;20025;-76
2022/12/27 12:43:55;;;;;;;8.15;3.58;;;;;;;5.12;100.00;102357.25;5008091;28;20354;-76
2022/12/27 12:46:31;;;;;;;8.57;3.65;;;;;;;5.08;100.00;102351.06;5010072;28;20037;-75
2022/12/27 12:49:05;;;;;;;9.88;4.07;;;;;;;5.08;100.00;102343.00;5019960;28;20029;-76
2022/12/27 12:51:45;;;;;;;9.25;3.60;;;;;;;5.06;100.00;102342.13;5022359;28;20034;-76
2022/12/27 12:54:29;;;;;;;7.63;3.97;;;;;;;5.08;100.00;102325.88;5010196;28;20034;-76
2022/12/27 12:56:54;;;;;;;5.80;2.90;;;;;;;5.13;100.00;102313.19;5016813;28;20076;-76
2022/12/27 12:59:45;;;;;;;7.32;3.17;;;;;;;5.26;100.00;102319.13;5014942;28;20048;-76
2022/12/27 13:02:35;;;;;;;11.07;4.05;;;;;;;5.41;100.00;102316.03;5011682;28;20040;-76
2022/12/27 13:05:06;;;;;;;10.93;3.40;;;;;;;5.55;100.00;102311.16;5016438;28;20116;-76
2022/12/27 13:07:45;;;;;;;11.93;3.65;;;;;;;5.67;100.00;102309.00;5011348;28;20868;-76
2022/12/27 13:10:28;;;;;;;9.43;4.35;;;;;;;5.72;100.00;102302.53;5020155;28;20121;-76
2022/12/27 13:13:16;;;;;;;11.32;4.07;;;;;;;5.72;100.00;102294.44;5009856;28;20033;-75
2022/12/27 13:16:07;;;;;;;9.80;3.55;;;;;;;5.69;100.00;102293.63;5010107;28;20041;-76
2022/12/27 13:18:43;;;;;;;8.43;3.10;;;;;;;5.61;100.00;102288.47;5014846;28;20045;-76